Terminal Aerodrome Forecast
Issued by NWS

Home | Current Version | Previous Version | Text Only | Print | Product List | Glossary On
Versions: 1 2 3 4 5 6 7 8 9 10 11 12 13 14 15 16 17 18 19 20 21 22 23 24 25 26 27 28 29 30 31 32 33 34 35 36 37 38 39 40 41
000
FTUS43 KGLD 250520
TAFMCK
TAF
KMCK 250520Z 2506/2606 30007KT P6SM VCSH FEW006 SCT020 BKN070
      TEMPO 2506/2507 5SM -TSRA BR BKN006CB
     FM251000 29007KT P6SM BKN006
     FM251400 34009KT P6SM SCT006 BKN015
     FM251800 02010KT P6SM BKN035
     FM252100 06007KT P6SM BKN045
     FM260300 09012KT P6SM BKN040
     FM260500 10014G22KT P6SM SCT006 BKN015=

USA.gov is the U.S. government's official web portal to all federal, state and local government web resources and services.